CSK weather

Cap Skirring Airport
Cap Skirring, Ziguinchor Region, Senegal

Public forecast

Using degrees Celsius for public forecast. Weather courtesy of forecast.io.

METAR (pilot weather report)

Retrieved 2019/03/23 10:00 UTC (47 minutes ago):

GOGS 231000Z VRB08KT CAVOK 24/18 Q1014

TAF (pilot weather forecast)

Retrieved 2019/03/23 06:06 UTC (5 hours ago):

TAF GOGS 230530Z 2306/2406 VRB06KT CAVOK